createdAt,value
2016-08-14T00:02:03.385Z,18.8
2016-08-14T00:07:03.460Z,18.8
2016-08-14T00:12:03.420Z,18.7
2016-08-14T00:17:03.429Z,18.4
2016-08-14T00:22:03.010Z,18.5
2016-08-14T00:27:03.645Z,18.6
2016-08-14T00:32:03.297Z,18.7
2016-08-14T00:37:03.094Z,18.7
2016-08-14T00:42:03.730Z,18.7
2016-08-14T00:47:03.381Z,18.7
2016-08-14T00:52:03.127Z,18.6
2016-08-14T00:57:02.913Z,18.6
2016-08-14T01:02:03.564Z,18.6
2016-08-14T01:07:03.267Z,18.5
2016-08-14T01:12:03.095Z,18.5
2016-08-14T01:17:03.840Z,18.5
2016-08-14T01:22:03.138Z,18.4
2016-08-14T01:27:02.964Z,18.4
2016-08-14T01:32:03.583Z,18.3
2016-08-14T01:37:03.669Z,18.3
2016-08-14T01:42:03.382Z,18.3
2016-08-14T01:47:02.989Z,18.2
2016-08-14T01:52:03.016Z,18.2
2016-08-14T01:57:03.568Z,18.2
2016-08-14T02:02:03.506Z,18.2
2016-08-14T02:07:03.636Z,18.1
2016-08-14T02:12:03.441Z,18.1
2016-08-14T02:17:03.705Z,18.1
2016-08-14T02:22:03.441Z,18.1
2016-08-14T02:27:03.195Z,18.0
2016-08-14T02:32:03.409Z,18.0
2016-08-14T02:37:03.444Z,17.9
2016-08-14T02:42:03.697Z,17.9
2016-08-14T02:47:03.494Z,17.8
2016-08-14T02:52:03.631Z,17.8
2016-08-14T02:57:03.141Z,17.8
2016-08-14T03:02:03.639Z,17.8
2016-08-14T03:07:02.975Z,17.5
2016-08-14T03:12:03.398Z,17.6
2016-08-14T03:17:03.793Z,17.5
2016-08-14T03:22:03.108Z,17.5
2016-08-14T03:27:03.527Z,17.6
2016-08-14T03:32:02.950Z,17.5
2016-08-14T03:37:03.679Z,17.5
2016-08-14T03:42:03.697Z,17.4
2016-08-14T03:47:15.665Z,17.4
2016-08-14T03:52:03.261Z,17.4
2016-08-14T03:57:03.208Z,17.3
2016-08-14T04:02:17.317Z,17.1
2016-08-14T04:07:03.168Z,17.1
2016-08-14T04:12:03.914Z,17.1
2016-08-14T04:17:20.916Z,17.0
2016-08-14T04:22:03.544Z,17.0
2016-08-14T04:27:03.265Z,16.9
2016-08-14T04:32:21.674Z,17.0
2016-08-14T04:37:03.611Z,16.9
2016-08-14T04:42:03.724Z,17.0
2016-08-14T04:47:23.236Z,17.1
2016-08-14T04:52:03.621Z,17.2
2016-08-14T04:57:03.537Z,17.2
2016-08-14T05:02:21.076Z,17.5
2016-08-14T05:07:03.571Z,17.6
2016-08-14T05:12:03.726Z,17.6
2016-08-14T05:17:16.941Z,17.8
2016-08-14T05:22:03.753Z,17.8
2016-08-14T05:27:03.303Z,17.7
2016-08-14T05:32:20.852Z,18.0
2016-08-14T05:37:03.252Z,18.5
2016-08-14T05:42:02.907Z,18.5
2016-08-14T05:47:17.122Z,19.0
2016-08-14T05:52:03.295Z,19.0
2016-08-14T05:57:03.387Z,19.4
2016-08-14T06:02:17.586Z,19.4
2016-08-14T06:07:03.245Z,19.9
2016-08-14T06:12:03.789Z,19.9
2016-08-14T06:17:21.154Z,20.3
2016-08-14T06:22:03.033Z,20.3
2016-08-14T06:27:03.389Z,20.5
2016-08-14T06:32:21.134Z,20.9
2016-08-14T06:37:03.347Z,21.2
2016-08-14T06:42:03.050Z,21.2
2016-08-14T06:47:17.365Z,21.8
2016-08-14T06:52:03.093Z,21.8
2016-08-14T06:57:03.162Z,22.3
2016-08-14T07:02:17.226Z,22.3
2016-08-14T07:07:03.185Z,22.9
2016-08-14T07:12:03.131Z,23.2
2016-08-14T07:17:21.018Z,23.5
2016-08-14T07:22:03.358Z,23.5
2016-08-14T07:27:03.738Z,24.1
2016-08-14T07:32:20.243Z,24.3
2016-08-14T07:37:03.085Z,24.6
2016-08-14T07:42:03.261Z,24.6
2016-08-14T07:47:16.978Z,24.9
2016-08-14T07:52:02.859Z,25.2
2016-08-14T07:57:02.910Z,25.8
2016-08-14T08:02:33.574Z,26.1
2016-08-14T08:07:03.167Z,26.4
2016-08-14T08:12:03.458Z,26.4
2016-08-14T08:17:17.656Z,26.8
2016-08-14T08:22:03.024Z,27.2
2016-08-14T08:27:03.061Z,28.0
2016-08-14T08:32:21.983Z,27.9
2016-08-14T08:37:03.284Z,28.7
2016-08-14T08:42:03.128Z,28.7
2016-08-14T08:47:21.873Z,29.5
2016-08-14T08:52:03.755Z,29.4
2016-08-14T08:57:03.674Z,30.2
2016-08-14T09:02:17.323Z,30.5
2016-08-14T09:07:03.585Z,30.7
2016-08-14T09:12:02.945Z,30.9
2016-08-14T09:17:22.031Z,30.9
2016-08-14T09:22:03.287Z,31.5
2016-08-14T09:27:03.310Z,32.3
2016-08-14T09:32:17.440Z,32.8
2016-08-14T09:37:03.276Z,33.6
2016-08-14T09:42:02.901Z,33.5
2016-08-14T09:47:17.038Z,33.6
2016-08-14T09:52:03.002Z,32.9
2016-08-14T09:57:03.586Z,32.0
2016-08-14T10:02:17.362Z,32.0
2016-08-14T10:07:03.074Z,31.1
2016-08-14T10:12:03.422Z,31.1
2016-08-14T10:17:17.261Z,30.7
2016-08-14T10:22:03.072Z,31.6
2016-08-14T10:27:03.691Z,31.6
2016-08-14T10:32:21.796Z,31.7
2016-08-14T10:37:03.741Z,31.6
2016-08-14T10:42:03.080Z,32.2
2016-08-14T10:47:21.755Z,32.3
2016-08-14T10:52:03.649Z,32.3
2016-08-14T10:57:03.826Z,32.8
2016-08-14T11:02:21.740Z,33.2
2016-08-14T11:07:03.443Z,33.7
2016-08-14T11:12:03.600Z,33.8
2016-08-14T11:17:16.855Z,34.3
2016-08-14T11:22:03.278Z,34.8
2016-08-14T11:27:03.285Z,34.6
2016-08-14T11:32:16.823Z,34.6
2016-08-14T11:37:03.584Z,34.7
2016-08-14T11:42:03.264Z,34.7
2016-08-14T11:47:16.900Z,35.6
2016-08-14T11:52:03.544Z,35.6
2016-08-14T11:57:03.524Z,35.1
2016-08-14T12:02:16.951Z,35.1
2016-08-14T12:07:03.382Z,35.2
2016-08-14T12:12:03.739Z,35.0
2016-08-14T12:17:17.210Z,34.9
2016-08-14T12:22:03.268Z,35.3
2016-08-14T12:27:03.693Z,35.3
2016-08-14T12:32:21.305Z,35.8
2016-08-14T12:37:03.201Z,36.2
2016-08-14T12:42:02.908Z,36.8
2016-08-14T12:47:16.611Z,36.9
2016-08-14T12:52:03.069Z,36.7
2016-08-14T12:57:03.489Z,36.2
2016-08-14T13:02:17.246Z,34.6
2016-08-14T13:07:03.053Z,34.5
2016-08-14T13:12:03.240Z,34.5
2016-08-14T13:17:17.418Z,35.2
2016-08-14T13:22:03.287Z,37.5
2016-08-14T13:27:03.148Z,37.5
2016-08-14T13:32:17.376Z,36.6
2016-08-14T13:37:03.031Z,36.6
2016-08-14T13:42:03.059Z,36.2
2016-08-14T13:47:21.332Z,35.3
2016-08-14T13:52:02.913Z,35.5
2016-08-14T13:57:02.982Z,36.1
2016-08-14T20:02:03.449Z,23.5
2016-08-14T20:12:03.323Z,23.3
2016-08-14T20:17:04.853Z,23.2
2016-08-14T20:22:03.579Z,23.0
2016-08-14T20:27:03.542Z,22.9
2016-08-14T20:32:04.844Z,22.7
2016-08-14T20:37:03.093Z,22.6
2016-08-14T20:42:03.442Z,22.6
2016-08-14T20:47:03.857Z,22.1
2016-08-14T20:52:03.164Z,22.1
2016-08-14T20:57:03.605Z,21.9
2016-08-14T21:02:04.134Z,21.6
2016-08-14T21:07:03.720Z,21.5
2016-08-14T21:12:03.494Z,21.6
2016-08-14T21:17:04.122Z,21.4
2016-08-14T21:22:03.839Z,21.3
2016-08-14T21:27:03.194Z,21.3
2016-08-14T21:32:03.933Z,21.2
2016-08-14T21:37:03.265Z,21.1
2016-08-14T21:42:03.655Z,20.9
2016-08-14T21:47:03.670Z,20.8
2016-08-14T21:52:03.156Z,20.8
2016-08-14T21:57:03.501Z,20.6
2016-08-14T22:02:08.841Z,20.3
2016-08-14T22:07:03.094Z,20.2
2016-08-14T22:12:03.896Z,20.2
2016-08-14T22:22:03.506Z,20.0
2016-08-14T22:27:03.191Z,19.9
2016-08-14T22:32:03.625Z,19.9
2016-08-14T22:37:03.112Z,19.8
2016-08-14T22:42:03.571Z,19.8
2016-08-14T22:47:03.086Z,19.8
2016-08-14T22:52:03.436Z,19.8
2016-08-14T22:57:03.577Z,19.8
2016-08-14T23:02:03.087Z,19.7
2016-08-14T23:07:03.635Z,19.7
2016-08-14T23:12:03.403Z,19.7
2016-08-14T23:17:03.998Z,19.6
2016-08-14T23:22:03.212Z,19.5
2016-08-14T23:27:03.544Z,19.5
2016-08-14T23:32:03.065Z,19.5
2016-08-14T23:37:03.427Z,19.4
2016-08-14T23:42:03.289Z,19.4
2016-08-14T23:47:03.691Z,19.3
2016-08-14T23:52:03.771Z,19.1
2016-08-14T23:57:03.005Z,19.0
